sensor_id;sensor_type;location;lat;lon;timestamp;temperature;humidity
10885;DHT22;5495;53.252;10.390;2023-01-28T00:00:02;1.70;99.90
10885;DHT22;5495;53.252;10.390;2023-01-28T00:02:31;2.50;99.90
10885;DHT22;5495;53.252;10.390;2023-01-28T00:05:00;2.50;99.90
10885;DHT22;5495;53.252;10.390;2023-01-28T00:07:28;2.40;99.90
10885;DHT22;5495;53.252;10.390;2023-01-28T00:09:55;2.40;99.90
10885;DHT22;5495;53.252;10.390;2023-01-28T00:12:27;2.50;99.90
10885;DHT22;5495;53.252;10.390;2023-01-28T00:14:55;2.50;99.90
10885;DHT22;5495;53.252;10.390;2023-01-28T00:17:22;2.60;99.90
10885;DHT22;5495;53.252;10.390;2023-01-28T00:19:56;2.50;99.90
10885;DHT22;5495;53.252;10.390;2023-01-28T00:22:24;2.50;99.90
10885;DHT22;5495;53.252;10.390;2023-01-28T00:24:51;2.40;99.90
10885;DHT22;5495;53.252;10.390;2023-01-28T00:27:21;2.40;99.90
10885;DHT22;5495;53.252;10.390;2023-01-28T00:29:50;2.40;99.90
10885;DHT22;5495;53.252;10.390;2023-01-28T00:32:22;2.40;99.90
10885;DHT22;5495;53.252;10.390;2023-01-28T00:34:50;2.40;99.90
10885;DHT22;5495;53.252;10.390;2023-01-28T00:37:26;2.40;99.90
10885;DHT22;5495;53.252;10.390;2023-01-28T00:39:53;2.50;99.90
10885;DHT22;5495;53.252;10.390;2023-01-28T00:42:21;2.50;99.90
10885;DHT22;5495;53.252;10.390;2023-01-28T00:44:49;2.50;99.90
10885;DHT22;5495;53.252;10.390;2023-01-28T00:47:18;2.50;99.90
10885;DHT22;5495;53.252;10.390;2023-01-28T00:49:47;2.50;99.90
10885;DHT22;5495;53.252;10.390;2023-01-28T00:52:18;2.50;99.90
10885;DHT22;5495;53.252;10.390;2023-01-28T00:54:46;2.50;99.90
10885;DHT22;5495;53.252;10.390;2023-01-28T00:57:16;2.50;99.90
10885;DHT22;5495;53.252;10.390;2023-01-28T00:59:51;2.50;99.90
10885;DHT22;5495;53.252;10.390;2023-01-28T01:02:21;2.50;99.90
10885;DHT22;5495;53.252;10.390;2023-01-28T01:04:49;2.50;99.90
10885;DHT22;5495;53.252;10.390;2023-01-28T01:07:26;2.50;99.90
10885;DHT22;5495;53.252;10.390;2023-01-28T01:10:00;2.50;99.90
10885;DHT22;5495;53.252;10.390;2023-01-28T01:12:28;2.50;99.90
10885;DHT22;5495;53.252;10.390;2023-01-28T01:14:58;2.50;99.90
10885;DHT22;5495;53.252;10.390;2023-01-28T01:17:25;2.50;99.90
10885;DHT22;5495;53.252;10.390;2023-01-28T01:19:55;2.50;99.90
10885;DHT22;5495;53.252;10.390;2023-01-28T01:22:23;2.40;99.90
10885;DHT22;5495;53.252;10.390;2023-01-28T01:24:51;2.30;99.90
10885;DHT22;5495;53.252;10.390;2023-01-28T01:27:22;2.30;99.90
10885;DHT22;5495;53.252;10.390;2023-01-28T01:29:49;2.30;99.90
10885;DHT22;5495;53.252;10.390;2023-01-28T01:32:18;2.30;99.90
10885;DHT22;5495;53.252;10.390;2023-01-28T01:34:47;2.30;99.90
10885;DHT22;5495;53.252;10.390;2023-01-28T01:37:14;2.40;99.90
10885;DHT22;5495;53.252;10.390;2023-01-28T01:39:42;2.40;99.90
10885;DHT22;5495;53.252;10.390;2023-01-28T01:42:11;2.40;99.90
10885;DHT22;5495;53.252;10.390;2023-01-28T01:45:05;2.30;99.90
10885;DHT22;5495;53.252;10.390;2023-01-28T01:47:40;2.20;99.90
10885;DHT22;5495;53.252;10.390;2023-01-28T01:50:15;2.20;99.90
10885;DHT22;5495;53.252;10.390;2023-01-28T01:52:45;2.20;99.90
10885;DHT22;5495;53.252;10.390;2023-01-28T01:55:18;2.20;99.90
10885;DHT22;5495;53.252;10.390;2023-01-28T01:57:48;2.20;99.90
10885;DHT22;5495;53.252;10.390;2023-01-28T02:00:20;2.20;99.90
10885;DHT22;5495;53.252;10.390;2023-01-28T02:02:51;2.10;99.90
10885;DHT22;5495;53.252;10.390;2023-01-28T02:05:22;2.10;99.90
10885;DHT22;5495;53.252;10.390;2023-01-28T02:07:51;2.10;99.90
10885;DHT22;5495;53.252;10.390;2023-01-28T02:10:41;2.20;99.90
10885;DHT22;5495;53.252;10.390;2023-01-28T02:13:08;2.20;99.90
10885;DHT22;5495;53.252;10.390;2023-01-28T02:15:38;2.20;99.90
10885;DHT22;5495;53.252;10.390;2023-01-28T02:18:07;2.10;99.90
10885;DHT22;5495;53.252;10.390;2023-01-28T02:20:49;2.10;99.90
10885;DHT22;5495;53.252;10.390;2023-01-28T02:23:37;2.10;99.90
10885;DHT22;5495;53.252;10.390;2023-01-28T02:26:29;2.20;99.90
10885;DHT22;5495;53.252;10.390;2023-01-28T02:29:04;2.20;99.90
10885;DHT22;5495;53.252;10.390;2023-01-28T02:31:41;2.20;99.90
10885;DHT22;5495;53.252;10.390;2023-01-28T02:34:15;2.20;99.90
10885;DHT22;5495;53.252;10.390;2023-01-28T02:36:53;2.10;99.90
10885;DHT22;5495;53.252;10.390;2023-01-28T02:39:25;2.10;99.90
10885;DHT22;5495;53.252;10.390;2023-01-28T02:42:00;2.10;99.90
10885;DHT22;5495;53.252;10.390;2023-01-28T02:44:32;2.10;99.90
10885;DHT22;5495;53.252;10.390;2023-01-28T02:46:59;1.30;99.90
10885;DHT22;5495;53.252;10.390;2023-01-28T02:49:50;2.10;99.90
10885;DHT22;5495;53.252;10.390;2023-01-28T02:52:28;2.00;99.90
10885;DHT22;5495;53.252;10.390;2023-01-28T02:55:20;2.00;99.90
10885;DHT22;5495;53.252;10.390;2023-01-28T02:57:59;2.00;99.90
10885;DHT22;5495;53.252;10.390;2023-01-28T03:00:34;2.00;99.90
10885;DHT22;5495;53.252;10.390;2023-01-28T03:03:11;2.00;99.90
10885;DHT22;5495;53.252;10.390;2023-01-28T03:05:44;2.00;99.90
10885;DHT22;5495;53.252;10.390;2023-01-28T03:08:34;1.30;99.90
10885;DHT22;5495;53.252;10.390;2023-01-28T03:11:20;2.00;99.90
10885;DHT22;5495;53.252;10.390;2023-01-28T03:14:07;2.00;99.90
10885;DHT22;5495;53.252;10.390;2023-01-28T03:16:58;2.00;99.90
10885;DHT22;5495;53.252;10.390;2023-01-28T03:19:46;2.10;99.90
10885;DHT22;5495;53.252;10.390;2023-01-28T03:22:36;2.00;99.90
10885;DHT22;5495;53.252;10.390;2023-01-28T03:25:22;2.00;99.90
10885;DHT22;5495;53.252;10.390;2023-01-28T03:28:12;2.10;99.90
10885;DHT22;5495;53.252;10.390;2023-01-28T03:31:03;2.00;99.90
10885;DHT22;5495;53.252;10.390;2023-01-28T03:33:52;2.00;99.90
10885;DHT22;5495;53.252;10.390;2023-01-28T03:36:38;2.00;99.90
10885;DHT22;5495;53.252;10.390;2023-01-28T03:39:22;2.00;99.90
10885;DHT22;5495;53.252;10.390;2023-01-28T03:41:58;2.00;99.90
10885;DHT22;5495;53.252;10.390;2023-01-28T03:44:26;1.90;99.90
10885;DHT22;5495;53.252;10.390;2023-01-28T03:47:12;1.20;99.90
10885;DHT22;5495;53.252;10.390;2023-01-28T03:49:42;1.90;99.90
10885;DHT22;5495;53.252;10.390;2023-01-28T03:52:14;1.90;99.90
10885;DHT22;5495;53.252;10.390;2023-01-28T03:54:43;1.90;99.90
10885;DHT22;5495;53.252;10.390;2023-01-28T03:57:13;1.90;99.90
10885;DHT22;5495;53.252;10.390;2023-01-28T03:59:42;1.90;99.90
10885;DHT22;5495;53.252;10.390;2023-01-28T04:02:12;1.80;99.90
10885;DHT22;5495;53.252;10.390;2023-01-28T04:04:41;1.80;99.90
10885;DHT22;5495;53.252;10.390;2023-01-28T04:07:10;1.80;99.90
10885;DHT22;5495;53.252;10.390;2023-01-28T04:09:39;1.80;99.90
10885;DHT22;5495;53.252;10.390;2023-01-28T04:12:06;1.80;99.90
10885;DHT22;5495;53.252;10.390;2023-01-28T04:14:34;1.80;99.90
10885;DHT22;5495;53.252;10.390;2023-01-28T04:17:02;1.70;99.90
10885;DHT22;5495;53.252;10.390;2023-01-28T04:19:30;1.70;99.90
10885;DHT22;5495;53.252;10.390;2023-01-28T04:22:05;1.70;99.90
10885;DHT22;5495;53.252;10.390;2023-01-28T04:24:34;1.70;99.90
10885;DHT22;5495;53.252;10.390;2023-01-28T04:27:02;1.70;99.90
10885;DHT22;5495;53.252;10.390;2023-01-28T04:29:29;1.80;99.90
10885;DHT22;5495;53.252;10.390;2023-01-28T04:31:57;1.80;99.90
10885;DHT22;5495;53.252;10.390;2023-01-28T04:34:25;1.80;99.90
10885;DHT22;5495;53.252;10.390;2023-01-28T04:36:53;1.90;99.90
10885;DHT22;5495;53.252;10.390;2023-01-28T04:39:23;1.90;99.90
10885;DHT22;5495;53.252;10.390;2023-01-28T04:41:51;1.80;99.90
10885;DHT22;5495;53.252;10.390;2023-01-28T04:44:18;1.70;99.90
10885;DHT22;5495;53.252;10.390;2023-01-28T04:46:46;1.70;99.90
10885;DHT22;5495;53.252;10.390;2023-01-28T04:49:13;1.60;99.90
10885;DHT22;5495;53.252;10.390;2023-01-28T04:51:41;1.60;99.90
10885;DHT22;5495;53.252;10.390;2023-01-28T04:54:09;1.60;99.90
10885;DHT22;5495;53.252;10.390;2023-01-28T04:56:38;1.60;99.90
10885;DHT22;5495;53.252;10.390;2023-01-28T04:59:05;1.60;99.90
10885;DHT22;5495;53.252;10.390;2023-01-28T05:01:33;1.50;99.90
10885;DHT22;5495;53.252;10.390;2023-01-28T05:04:03;1.50;99.90
10885;DHT22;5495;53.252;10.390;2023-01-28T05:06:31;1.50;99.90
10885;DHT22;5495;53.252;10.390;2023-01-28T05:08:59;1.50;99.90
10885;DHT22;5495;53.252;10.390;2023-01-28T05:11:26;1.40;99.90
10885;DHT22;5495;53.252;10.390;2023-01-28T05:13:55;1.40;99.90
10885;DHT22;5495;53.252;10.390;2023-01-28T05:16:22;1.40;99.90
10885;DHT22;5495;53.252;10.390;2023-01-28T05:18:50;1.30;99.90
10885;DHT22;5495;53.252;10.390;2023-01-28T05:21:17;1.30;99.90
10885;DHT22;5495;53.252;10.390;2023-01-28T05:23:45;1.20;99.90
10885;DHT22;5495;53.252;10.390;2023-01-28T05:26:12;1.10;99.90
10885;DHT22;5495;53.252;10.390;2023-01-28T05:28:40;1.10;99.90
10885;DHT22;5495;53.252;10.390;2023-01-28T05:31:10;1.10;99.90
10885;DHT22;5495;53.252;10.390;2023-01-28T05:33:37;1.10;99.90
10885;DHT22;5495;53.252;10.390;2023-01-28T05:36:05;1.00;99.90
10885;DHT22;5495;53.252;10.390;2023-01-28T05:38:33;1.00;99.90
10885;DHT22;5495;53.252;10.390;2023-01-28T05:41:01;0.90;99.90
10885;DHT22;5495;53.252;10.390;2023-01-28T05:43:30;0.90;99.90
10885;DHT22;5495;53.252;10.390;2023-01-28T05:46:00;1.00;99.90
10885;DHT22;5495;53.252;10.390;2023-01-28T05:48:31;1.10;99.90
10885;DHT22;5495;53.252;10.390;2023-01-28T05:51:01;1.20;99.90
10885;DHT22;5495;53.252;10.390;2023-01-28T05:53:31;1.20;99.90
10885;DHT22;5495;53.252;10.390;2023-01-28T05:56:08;1.20;99.90
10885;DHT22;5495;53.252;10.390;2023-01-28T05:58:37;1.20;99.90
10885;DHT22;5495;53.252;10.390;2023-01-28T06:01:07;1.30;99.90
10885;DHT22;5495;53.252;10.390;2023-01-28T06:03:37;1.30;99.90
10885;DHT22;5495;53.252;10.390;2023-01-28T06:06:06;1.30;99.90
10885;DHT22;5495;53.252;10.390;2023-01-28T06:08:35;1.20;99.90
10885;DHT22;5495;53.252;10.390;2023-01-28T06:11:07;1.10;99.90
10885;DHT22;5495;53.252;10.390;2023-01-28T06:13:36;1.10;99.90
10885;DHT22;5495;53.252;10.390;2023-01-28T06:16:07;1.10;99.90
10885;DHT22;5495;53.252;10.390;2023-01-28T06:18:38;1.10;99.90
10885;DHT22;5495;53.252;10.390;2023-01-28T06:21:07;1.00;99.90
10885;DHT22;5495;53.252;10.390;2023-01-28T06:23:36;1.00;99.90
10885;DHT22;5495;53.252;10.390;2023-01-28T06:26:04;0.90;99.90
10885;DHT22;5495;53.252;10.390;2023-01-28T06:28:34;0.90;99.90
10885;DHT22;5495;53.252;10.390;2023-01-28T06:31:02;0.90;99.90
10885;DHT22;5495;53.252;10.390;2023-01-28T06:33:30;0.80;99.90
10885;DHT22;5495;53.252;10.390;2023-01-28T06:36:02;0.80;99.90
10885;DHT22;5495;53.252;10.390;2023-01-28T06:38:30;0.80;99.90
10885;DHT22;5495;53.252;10.390;2023-01-28T06:40:59;0.80;99.90
10885;DHT22;5495;53.252;10.390;2023-01-28T06:43:28;0.80;99.90
10885;DHT22;5495;53.252;10.390;2023-01-28T06:45:58;0.80;99.90
10885;DHT22;5495;53.252;10.390;2023-01-28T06:48:28;0.80;99.90
10885;DHT22;5495;53.252;10.390;2023-01-28T06:51:00;0.80;99.90
10885;DHT22;5495;53.252;10.390;2023-01-28T06:53:28;0.80;99.90
10885;DHT22;5495;53.252;10.390;2023-01-28T06:55:57;0.80;99.90
10885;DHT22;5495;53.252;10.390;2023-01-28T06:58:27;0.80;99.90
10885;DHT22;5495;53.252;10.390;2023-01-28T07:00:57;0.80;99.90
10885;DHT22;5495;53.252;10.390;2023-01-28T07:03:27;0.80;99.90
10885;DHT22;5495;53.252;10.390;2023-01-28T07:05:56;0.80;99.90
10885;DHT22;5495;53.252;10.390;2023-01-28T07:08:36;0.80;99.90
10885;DHT22;5495;53.252;10.390;2023-01-28T07:11:09;0.80;99.90
10885;DHT22;5495;53.252;10.390;2023-01-28T07:13:39;0.80;99.90
10885;DHT22;5495;53.252;10.390;2023-01-28T07:16:09;0.90;99.90
10885;DHT22;5495;53.252;10.390;2023-01-28T07:18:38;0.80;99.90
10885;DHT22;5495;53.252;10.390;2023-01-28T07:21:07;0.80;99.90
10885;DHT22;5495;53.252;10.390;2023-01-28T07:23:37;0.80;99.90
10885;DHT22;5495;53.252;10.390;2023-01-28T07:26:05;0.70;99.90
10885;DHT22;5495;53.252;10.390;2023-01-28T07:28:33;0.70;99.90
10885;DHT22;5495;53.252;10.390;2023-01-28T07:31:02;0.70;99.90
10885;DHT22;5495;53.252;10.390;2023-01-28T07:33:30;0.70;99.90
10885;DHT22;5495;53.252;10.390;2023-01-28T07:35:59;0.80;99.90
10885;DHT22;5495;53.252;10.390;2023-01-28T07:38:27;0.70;99.90
10885;DHT22;5495;53.252;10.390;2023-01-28T07:40:57;0.70;99.90
10885;DHT22;5495;53.252;10.390;2023-01-28T07:43:25;0.70;99.90
10885;DHT22;5495;53.252;10.390;2023-01-28T07:46:00;0.70;99.90
10885;DHT22;5495;53.252;10.390;2023-01-28T07:48:31;0.70;99.90
10885;DHT22;5495;53.252;10.390;2023-01-28T07:51:02;0.80;99.90
10885;DHT22;5495;53.252;10.390;2023-01-28T07:53:32;0.80;99.90
10885;DHT22;5495;53.252;10.390;2023-01-28T07:56:01;0.90;99.90
10885;DHT22;5495;53.252;10.390;2023-01-28T07:58:32;1.00;99.90
10885;DHT22;5495;53.252;10.390;2023-01-28T08:01:04;1.00;99.90
10885;DHT22;5495;53.252;10.390;2023-01-28T08:03:31;1.00;99.90
10885;DHT22;5495;53.252;10.390;2023-01-28T08:05:59;1.00;99.90
10885;DHT22;5495;53.252;10.390;2023-01-28T08:08:29;1.10;99.90
10885;DHT22;5495;53.252;10.390;2023-01-28T08:10:57;1.10;99.90
10885;DHT22;5495;53.252;10.390;2023-01-28T08:13:26;1.10;99.90
10885;DHT22;5495;53.252;10.390;2023-01-28T08:15:55;1.10;99.90
10885;DHT22;5495;53.252;10.390;2023-01-28T08:18:22;1.10;99.90
10885;DHT22;5495;53.252;10.390;2023-01-28T08:20:54;1.20;99.90
10885;DHT22;5495;53.252;10.390;2023-01-28T08:23:21;1.20;99.90
10885;DHT22;5495;53.252;10.390;2023-01-28T08:25:51;1.30;99.90
10885;DHT22;5495;53.252;10.390;2023-01-28T08:28:20;1.30;99.90
10885;DHT22;5495;53.252;10.390;2023-01-28T08:30:49;1.40;99.90
10885;DHT22;5495;53.252;10.390;2023-01-28T08:33:17;1.40;99.90
10885;DHT22;5495;53.252;10.390;2023-01-28T08:35:45;1.50;99.90
10885;DHT22;5495;53.252;10.390;2023-01-28T08:38:14;1.50;99.90
10885;DHT22;5495;53.252;10.390;2023-01-28T08:40:42;1.50;99.90
10885;DHT22;5495;53.252;10.390;2023-01-28T08:43:09;1.40;99.90
10885;DHT22;5495;53.252;10.390;2023-01-28T08:45:39;1.40;99.90
10885;DHT22;5495;53.252;10.390;2023-01-28T08:48:11;1.50;99.90
10885;DHT22;5495;53.252;10.390;2023-01-28T08:50:40;1.60;99.90
10885;DHT22;5495;53.252;10.390;2023-01-28T08:53:10;1.50;99.90
10885;DHT22;5495;53.252;10.390;2023-01-28T08:55:38;1.50;99.90
10885;DHT22;5495;53.252;10.390;2023-01-28T08:58:08;1.50;99.90
10885;DHT22;5495;53.252;10.390;2023-01-28T09:00:36;1.60;99.90
10885;DHT22;5495;53.252;10.390;2023-01-28T09:03:04;1.60;99.90
10885;DHT22;5495;53.252;10.390;2023-01-28T09:05:34;1.70;99.90
10885;DHT22;5495;53.252;10.390;2023-01-28T09:08:03;1.80;99.90
10885;DHT22;5495;53.252;10.390;2023-01-28T09:10:31;1.90;99.90
10885;DHT22;5495;53.252;10.390;2023-01-28T09:13:07;1.90;99.90
10885;DHT22;5495;53.252;10.390;2023-01-28T09:15:39;2.00;99.90
10885;DHT22;5495;53.252;10.390;2023-01-28T09:18:06;2.10;99.90
10885;DHT22;5495;53.252;10.390;2023-01-28T09:20:36;2.10;99.90
10885;DHT22;5495;53.252;10.390;2023-01-28T09:23:04;2.10;99.90
10885;DHT22;5495;53.252;10.390;2023-01-28T09:25:32;2.20;99.90
10885;DHT22;5495;53.252;10.390;2023-01-28T09:28:01;2.30;99.90
10885;DHT22;5495;53.252;10.390;2023-01-28T09:30:29;2.30;99.90
10885;DHT22;5495;53.252;10.390;2023-01-28T09:32:57;2.40;99.90
10885;DHT22;5495;53.252;10.390;2023-01-28T09:35:24;2.50;99.90
10885;DHT22;5495;53.252;10.390;2023-01-28T09:37:57;2.50;99.90
10885;DHT22;5495;53.252;10.390;2023-01-28T09:40:31;2.60;99.90
10885;DHT22;5495;53.252;10.390;2023-01-28T09:43:23;2.60;99.90
10885;DHT22;5495;53.252;10.390;2023-01-28T09:45:57;2.60;99.90
10885;DHT22;5495;53.252;10.390;2023-01-28T09:48:28;2.70;99.90
10885;DHT22;5495;53.252;10.390;2023-01-28T09:50:57;2.60;99.90
10885;DHT22;5495;53.252;10.390;2023-01-28T09:53:32;2.50;99.90
10885;DHT22;5495;53.252;10.390;2023-01-28T09:56:05;2.50;99.90
10885;DHT22;5495;53.252;10.390;2023-01-28T09:58:34;2.50;99.90
10885;DHT22;5495;53.252;10.390;2023-01-28T10:01:09;2.50;99.90
10885;DHT22;5495;53.252;10.390;2023-01-28T10:03:49;2.50;99.90
10885;DHT22;5495;53.252;10.390;2023-01-28T10:06:25;2.50;99.90
10885;DHT22;5495;53.252;10.390;2023-01-28T10:14:48;2.50;99.90
10885;DHT22;5495;53.252;10.390;2023-01-28T10:17:22;2.60;99.90
10885;DHT22;5495;53.252;10.390;2023-01-28T10:19:59;2.60;99.90
10885;DHT22;5495;53.252;10.390;2023-01-28T10:22:31;2.60;99.90
10885;DHT22;5495;53.252;10.390;2023-01-28T10:25:06;2.50;99.90
10885;DHT22;5495;53.252;10.390;2023-01-28T10:27:41;2.50;99.90
10885;DHT22;5495;53.252;10.390;2023-01-28T10:30:16;2.50;99.90
10885;DHT22;5495;53.252;10.390;2023-01-28T10:32:51;2.60;99.90
10885;DHT22;5495;53.252;10.390;2023-01-28T10:35:22;2.70;99.90
10885;DHT22;5495;53.252;10.390;2023-01-28T10:37:56;2.80;99.90
10885;DHT22;5495;53.252;10.390;2023-01-28T10:40:29;2.90;99.90
10885;DHT22;5495;53.252;10.390;2023-01-28T10:42:57;3.10;99.90
10885;DHT22;5495;53.252;10.390;2023-01-28T10:45:29;3.20;99.90
10885;DHT22;5495;53.252;10.390;2023-01-28T10:48:02;3.40;99.90
10885;DHT22;5495;53.252;10.390;2023-01-28T10:50:31;3.50;99.90
10885;DHT22;5495;53.252;10.390;2023-01-28T10:53:01;3.70;99.90
10885;DHT22;5495;53.252;10.390;2023-01-28T10:55:45;3.90;99.90
10885;DHT22;5495;53.252;10.390;2023-01-28T10:58:16;4.00;99.90
10885;DHT22;5495;53.252;10.390;2023-01-28T11:00:44;4.80;99.90
10885;DHT22;5495;53.252;10.390;2023-01-28T11:03:17;5.80;99.90
10885;DHT22;5495;53.252;10.390;2023-01-28T11:05:50;6.70;99.90
10885;DHT22;5495;53.252;10.390;2023-01-28T11:08:19;7.40;99.90
10885;DHT22;5495;53.252;10.390;2023-01-28T11:10:49;7.90;99.90
10885;DHT22;5495;53.252;10.390;2023-01-28T11:13:25;8.20;99.20
10885;DHT22;5495;53.252;10.390;2023-01-28T11:15:57;8.70;98.30
10885;DHT22;5495;53.252;10.390;2023-01-28T11:18:56;8.80;97.90
10885;DHT22;5495;53.252;10.390;2023-01-28T11:21:37;8.70;96.90
10885;DHT22;5495;53.252;10.390;2023-01-28T11:24:14;8.50;97.00
10885;DHT22;5495;53.252;10.390;2023-01-28T11:26:53;8.80;97.40
10885;DHT22;5495;53.252;10.390;2023-01-28T11:29:25;10.50;96.70
10885;DHT22;5495;53.252;10.390;2023-01-28T11:31:53;13.00;93.30
10885;DHT22;5495;53.252;10.390;2023-01-28T11:34:25;14.70;90.30
10885;DHT22;5495;53.252;10.390;2023-01-28T11:36:59;16.10;85.80
10885;DHT22;5495;53.252;10.390;2023-01-28T11:39:28;14.70;82.60
10885;DHT22;5495;53.252;10.390;2023-01-28T11:42:11;12.90;85.40
10885;DHT22;5495;53.252;10.390;2023-01-28T11:44:41;11.30;85.90
10885;DHT22;5495;53.252;10.390;2023-01-28T11:47:37;10.60;90.30
10885;DHT22;5495;53.252;10.390;2023-01-28T11:50:24;11.40;88.20
10885;DHT22;5495;53.252;10.390;2023-01-28T11:53:16;14.20;85.80
10885;DHT22;5495;53.252;10.390;2023-01-28T11:55:56;15.50;81.00
10885;DHT22;5495;53.252;10.390;2023-01-28T11:58:36;16.70;81.10
10885;DHT22;5495;53.252;10.390;2023-01-28T12:01:11;17.40;79.80
10885;DHT22;5495;53.252;10.390;2023-01-28T12:03:53;17.50;75.30
10885;DHT22;5495;53.252;10.390;2023-01-28T12:06:39;18.90;73.80
10885;DHT22;5495;53.252;10.390;2023-01-28T12:09:16;19.00;74.40
10885;DHT22;5495;53.252;10.390;2023-01-28T12:12:02;19.40;71.80
10885;DHT22;5495;53.252;10.390;2023-01-28T12:15:15;19.80;68.70
10885;DHT22;5495;53.252;10.390;2023-01-28T12:17:57;21.20;66.30
10885;DHT22;5495;53.252;10.390;2023-01-28T12:20:30;21.90;63.90
10885;DHT22;5495;53.252;10.390;2023-01-28T12:23:24;22.30;61.10
10885;DHT22;5495;53.252;10.390;2023-01-28T12:26:05;22.10;60.40
10885;DHT22;5495;53.252;10.390;2023-01-28T12:28:48;21.20;58.50
10885;DHT22;5495;53.252;10.390;2023-01-28T12:37:18;15.00;65.50
10885;DHT22;5495;53.252;10.390;2023-01-28T12:39:59;14.20;65.90
10885;DHT22;5495;53.252;10.390;2023-01-28T12:42:33;13.40;67.20
10885;DHT22;5495;53.252;10.390;2023-01-28T12:45:13;12.20;68.70
10885;DHT22;5495;53.252;10.390;2023-01-28T12:47:46;11.00;71.70
10885;DHT22;5495;53.252;10.390;2023-01-28T12:50:18;9.90;72.80
10885;DHT22;5495;53.252;10.390;2023-01-28T12:52:50;8.90;75.60
10885;DHT22;5495;53.252;10.390;2023-01-28T12:55:21;8.10;79.40
10885;DHT22;5495;53.252;10.390;2023-01-28T12:57:53;7.40;80.30
10885;DHT22;5495;53.252;10.390;2023-01-28T13:00:27;6.80;83.30
10885;DHT22;5495;53.252;10.390;2023-01-28T13:03:04;6.40;85.70
10885;DHT22;5495;53.252;10.390;2023-01-28T13:05:38;6.20;88.60
10885;DHT22;5495;53.252;10.390;2023-01-28T13:08:12;5.90;90.00
10885;DHT22;5495;53.252;10.390;2023-01-28T13:10:43;5.60;89.40
10885;DHT22;5495;53.252;10.390;2023-01-28T13:13:16;5.40;90.50
10885;DHT22;5495;53.252;10.390;2023-01-28T13:15:45;5.30;90.30
10885;DHT22;5495;53.252;10.390;2023-01-28T13:18:36;5.20;91.20
10885;DHT22;5495;53.252;10.390;2023-01-28T13:21:14;5.10;92.60
10885;DHT22;5495;53.252;10.390;2023-01-28T13:23:43;5.00;93.00
10885;DHT22;5495;53.252;10.390;2023-01-28T13:26:40;5.00;93.20
10885;DHT22;5495;53.252;10.390;2023-01-28T13:29:20;4.90;93.60
10885;DHT22;5495;53.252;10.390;2023-01-28T13:31:50;4.70;93.50
10885;DHT22;5495;53.252;10.390;2023-01-28T13:34:34;4.50;93.30
10885;DHT22;5495;53.252;10.390;2023-01-28T13:37:27;4.40;94.20
10885;DHT22;5495;53.252;10.390;2023-01-28T13:40:01;4.30;94.80
10885;DHT22;5495;53.252;10.390;2023-01-28T13:42:30;4.20;95.40
10885;DHT22;5495;53.252;10.390;2023-01-28T13:45:20;4.20;95.90
10885;DHT22;5495;53.252;10.390;2023-01-28T13:47:54;4.20;96.30
10885;DHT22;5495;53.252;10.390;2023-01-28T13:50:31;4.20;96.20
10885;DHT22;5495;53.252;10.390;2023-01-28T13:53:04;4.30;97.10
10885;DHT22;5495;53.252;10.390;2023-01-28T13:55:36;4.30;97.50
10885;DHT22;5495;53.252;10.390;2023-01-28T14:01:19;4.30;99.00
10885;DHT22;5495;53.252;10.390;2023-01-28T14:04:06;4.20;99.90
10885;DHT22;5495;53.252;10.390;2023-01-28T14:06:58;4.20;99.80
10885;DHT22;5495;53.252;10.390;2023-01-28T14:09:48;4.20;99.70
10885;DHT22;5495;53.252;10.390;2023-01-28T14:12:52;4.20;99.40
10885;DHT22;5495;53.252;10.390;2023-01-28T14:15:53;4.10;99.90
10885;DHT22;5495;53.252;10.390;2023-01-28T14:18:26;4.10;99.60
10885;DHT22;5495;53.252;10.390;2023-01-28T14:20:56;4.20;99.90
10885;DHT22;5495;53.252;10.390;2023-01-28T14:23:29;4.10;99.90
10885;DHT22;5495;53.252;10.390;2023-01-28T14:26:19;4.00;99.90
10885;DHT22;5495;53.252;10.390;2023-01-28T14:29:01;4.00;99.90
10885;DHT22;5495;53.252;10.390;2023-01-28T14:31:36;4.00;99.80
10885;DHT22;5495;53.252;10.390;2023-01-28T14:34:12;4.00;99.90
10885;DHT22;5495;53.252;10.390;2023-01-28T14:36:44;4.00;99.90
10885;DHT22;5495;53.252;10.390;2023-01-28T14:39:20;3.80;99.90
10885;DHT22;5495;53.252;10.390;2023-01-28T14:41:51;3.80;99.90
10885;DHT22;5495;53.252;10.390;2023-01-28T14:44:31;3.80;99.90
10885;DHT22;5495;53.252;10.390;2023-01-28T14:47:15;3.90;99.90
10885;DHT22;5495;53.252;10.390;2023-01-28T14:50:00;4.00;99.90
10885;DHT22;5495;53.252;10.390;2023-01-28T14:52:43;3.90;99.90
10885;DHT22;5495;53.252;10.390;2023-01-28T14:55:28;3.90;99.90
10885;DHT22;5495;53.252;10.390;2023-01-28T14:58:01;4.00;99.90
10885;DHT22;5495;53.252;10.390;2023-01-28T15:00:32;4.00;99.90
10885;DHT22;5495;53.252;10.390;2023-01-28T15:03:08;3.90;99.90
10885;DHT22;5495;53.252;10.390;2023-01-28T15:05:36;3.90;99.90
10885;DHT22;5495;53.252;10.390;2023-01-28T15:08:04;3.80;99.90
10885;DHT22;5495;53.252;10.390;2023-01-28T15:10:37;3.80;99.90
10885;DHT22;5495;53.252;10.390;2023-01-28T15:13:08;3.80;99.90
10885;DHT22;5495;53.252;10.390;2023-01-28T15:15:38;3.80;99.90
10885;DHT22;5495;53.252;10.390;2023-01-28T15:18:12;3.80;99.90
10885;DHT22;5495;53.252;10.390;2023-01-28T15:20:44;3.80;99.90
10885;DHT22;5495;53.252;10.390;2023-01-28T15:23:15;3.70;99.90
10885;DHT22;5495;53.252;10.390;2023-01-28T15:25:46;3.80;99.90
10885;DHT22;5495;53.252;10.390;2023-01-28T15:28:21;3.80;99.90
10885;DHT22;5495;53.252;10.390;2023-01-28T15:30:52;3.80;99.90
10885;DHT22;5495;53.252;10.390;2023-01-28T15:33:21;3.70;99.90
10885;DHT22;5495;53.252;10.390;2023-01-28T15:35:49;3.70;99.90
10885;DHT22;5495;53.252;10.390;2023-01-28T15:38:22;3.70;99.90
10885;DHT22;5495;53.252;10.390;2023-01-28T15:41:02;3.70;99.90
10885;DHT22;5495;53.252;10.390;2023-01-28T15:43:34;3.60;99.90
10885;DHT22;5495;53.252;10.390;2023-01-28T15:46:09;3.60;99.90
10885;DHT22;5495;53.252;10.390;2023-01-28T15:48:41;3.60;99.90
10885;DHT22;5495;53.252;10.390;2023-01-28T15:51:21;3.60;99.90
10885;DHT22;5495;53.252;10.390;2023-01-28T15:53:52;3.50;99.90
10885;DHT22;5495;53.252;10.390;2023-01-28T15:56:26;3.50;99.90
10885;DHT22;5495;53.252;10.390;2023-01-28T15:58:54;3.50;99.90
10885;DHT22;5495;53.252;10.390;2023-01-28T16:01:23;3.50;99.90
10885;DHT22;5495;53.252;10.390;2023-01-28T16:04:01;3.40;99.90
10885;DHT22;5495;53.252;10.390;2023-01-28T16:09:03;3.40;99.90
10885;DHT22;5495;53.252;10.390;2023-01-28T16:11:35;3.30;99.90
10885;DHT22;5495;53.252;10.390;2023-01-28T16:14:14;3.10;99.90
10885;DHT22;5495;53.252;10.390;2023-01-28T16:16:47;3.00;99.90
10885;DHT22;5495;53.252;10.390;2023-01-28T16:19:27;2.80;99.90
10885;DHT22;5495;53.252;10.390;2023-01-28T16:21:57;2.80;99.90
10885;DHT22;5495;53.252;10.390;2023-01-28T16:24:27;2.60;99.90
10885;DHT22;5495;53.252;10.390;2023-01-28T16:27:02;2.50;99.90
10885;DHT22;5495;53.252;10.390;2023-01-28T16:29:31;2.50;99.90
10885;DHT22;5495;53.252;10.390;2023-01-28T16:31:59;2.50;99.90
10885;DHT22;5495;53.252;10.390;2023-01-28T16:34:28;2.40;99.90
10885;DHT22;5495;53.252;10.390;2023-01-28T16:36:57;2.30;99.90
10885;DHT22;5495;53.252;10.390;2023-01-28T16:39:25;2.30;99.90